sensor_id;sensor_type;location;lat;lon;timestamp;P1;durP1;ratioP1;P2;durP2;ratioP2
5807;SDS011;2930;42.678;23.312;2022-09-03T00:02:26;1.70;;;1.60;;
5807;SDS011;2930;42.678;23.312;2022-09-03T00:13:40;1.98;;;1.50;;
5807;SDS011;2930;42.678;23.312;2022-09-03T00:16:14;1.77;;;1.67;;
5807;SDS011;2930;42.678;23.312;2022-09-03T00:18:50;1.40;;;1.40;;
5807;SDS011;2930;42.678;23.312;2022-09-03T00:21:29;2.00;;;1.90;;
5807;SDS011;2930;42.678;23.312;2022-09-03T00:23:56;1.95;;;1.85;;
5807;SDS011;2930;42.678;23.312;2022-09-03T00:26:26;1.70;;;1.70;;
5807;SDS011;2930;42.678;23.312;2022-09-03T00:29:00;1.85;;;1.85;;
5807;SDS011;2930;42.678;23.312;2022-09-03T00:31:35;2.10;;;1.83;;
5807;SDS011;2930;42.678;23.312;2022-09-03T00:34:10;1.60;;;1.58;;
5807;SDS011;2930;42.678;23.312;2022-09-03T00:36:47;2.15;;;2.05;;
5807;SDS011;2930;42.678;23.312;2022-09-03T00:39:17;1.70;;;1.70;;
5807;SDS011;2930;42.678;23.312;2022-09-03T01:00:49;2.00;;;1.90;;
5807;SDS011;2930;42.678;23.312;2022-09-03T01:08:42;1.85;;;1.80;;
5807;SDS011;2930;42.678;23.312;2022-09-03T01:14:14;1.70;;;1.70;;
5807;SDS011;2930;42.678;23.312;2022-09-03T01:16:56;2.30;;;2.13;;
5807;SDS011;2930;42.678;23.312;2022-09-03T01:28:38;1.80;;;1.73;;
5807;SDS011;2930;42.678;23.312;2022-09-03T01:31:30;1.70;;;1.70;;
5807;SDS011;2930;42.678;23.312;2022-09-03T01:34:26;1.33;;;1.33;;
5807;SDS011;2930;42.678;23.312;2022-09-03T01:37:12;1.70;;;1.70;;
5807;SDS011;2930;42.678;23.312;2022-09-03T01:50:45;1.73;;;1.70;;
5807;SDS011;2930;42.678;23.312;2022-09-03T02:01:37;1.40;;;1.40;;
5807;SDS011;2930;42.678;23.312;2022-09-03T02:04:22;1.65;;;1.65;;
5807;SDS011;2930;42.678;23.312;2022-09-03T02:06:49;2.13;;;2.03;;
5807;SDS011;2930;42.678;23.312;2022-09-03T02:09:16;1.60;;;1.60;;
5807;SDS011;2930;42.678;23.312;2022-09-03T02:11:43;1.67;;;1.67;;
5807;SDS011;2930;42.678;23.312;2022-09-03T02:14:13;2.10;;;2.00;;
5807;SDS011;2930;42.678;23.312;2022-09-03T02:16:39;1.88;;;1.77;;
5807;SDS011;2930;42.678;23.312;2022-09-03T02:19:09;1.45;;;1.45;;
5807;SDS011;2930;42.678;23.312;2022-09-03T02:21:46;1.52;;;1.42;;
5807;SDS011;2930;42.678;23.312;2022-09-03T02:24:16;2.03;;;1.95;;
5807;SDS011;2930;42.678;23.312;2022-09-03T02:26:42;1.85;;;1.75;;
5807;SDS011;2930;42.678;23.312;2022-09-03T02:29:09;2.08;;;1.98;;
5807;SDS011;2930;42.678;23.312;2022-09-03T02:31:35;2.55;;;2.45;;
5807;SDS011;2930;42.678;23.312;2022-09-03T02:34:01;1.83;;;1.83;;
5807;SDS011;2930;42.678;23.312;2022-09-03T02:36:28;1.95;;;1.88;;
5807;SDS011;2930;42.678;23.312;2022-09-03T02:38:57;1.90;;;1.90;;
5807;SDS011;2930;42.678;23.312;2022-09-03T02:41:22;2.10;;;2.00;;
5807;SDS011;2930;42.678;23.312;2022-09-03T02:46:37;1.95;;;1.88;;
5807;SDS011;2930;42.678;23.312;2022-09-03T02:49:05;2.45;;;2.35;;
5807;SDS011;2930;42.678;23.312;2022-09-03T02:51:31;2.13;;;2.03;;
5807;SDS011;2930;42.678;23.312;2022-09-03T02:53:59;2.80;;;1.95;;
5807;SDS011;2930;42.678;23.312;2022-09-03T02:56:24;1.98;;;1.80;;
5807;SDS011;2930;42.678;23.312;2022-09-03T02:58:52;1.98;;;1.90;;
5807;SDS011;2930;42.678;23.312;2022-09-03T03:01:18;2.08;;;1.95;;
5807;SDS011;2930;42.678;23.312;2022-09-03T03:03:44;2.17;;;2.08;;
5807;SDS011;2930;42.678;23.312;2022-09-03T03:06:09;2.15;;;2.05;;
5807;SDS011;2930;42.678;23.312;2022-09-03T03:08:37;1.85;;;1.75;;
5807;SDS011;2930;42.678;23.312;2022-09-03T03:11:03;1.73;;;1.73;;
5807;SDS011;2930;42.678;23.312;2022-09-03T03:13:31;1.90;;;1.90;;
5807;SDS011;2930;42.678;23.312;2022-09-03T03:15:58;2.30;;;2.20;;
5807;SDS011;2930;42.678;23.312;2022-09-03T03:18:30;2.15;;;2.00;;
5807;SDS011;2930;42.678;23.312;2022-09-03T03:20:56;2.53;;;2.30;;
5807;SDS011;2930;42.678;23.312;2022-09-03T03:23:22;2.15;;;2.03;;
5807;SDS011;2930;42.678;23.312;2022-09-03T03:25:47;1.90;;;1.90;;
5807;SDS011;2930;42.678;23.312;2022-09-03T03:28:13;2.08;;;1.98;;
5807;SDS011;2930;42.678;23.312;2022-09-03T03:30:39;1.88;;;1.88;;
5807;SDS011;2930;42.678;23.312;2022-09-03T03:33:06;2.30;;;2.20;;
5807;SDS011;2930;42.678;23.312;2022-09-03T03:35:35;1.92;;;1.83;;
5807;SDS011;2930;42.678;23.312;2022-09-03T03:38:01;2.20;;;2.10;;
5807;SDS011;2930;42.678;23.312;2022-09-03T03:40:27;1.92;;;1.83;;
5807;SDS011;2930;42.678;23.312;2022-09-03T03:42:53;1.80;;;1.70;;
5807;SDS011;2930;42.678;23.312;2022-09-03T03:45:19;2.05;;;1.98;;
5807;SDS011;2930;42.678;23.312;2022-09-03T03:47:45;1.65;;;1.60;;
5807;SDS011;2930;42.678;23.312;2022-09-03T03:50:10;1.77;;;1.67;;
5807;SDS011;2930;42.678;23.312;2022-09-03T03:52:36;2.30;;;1.70;;
5807;SDS011;2930;42.678;23.312;2022-09-03T03:55:02;2.72;;;2.08;;
5807;SDS011;2930;42.678;23.312;2022-09-03T03:57:29;1.83;;;1.83;;
5807;SDS011;2930;42.678;23.312;2022-09-03T03:59:56;2.30;;;2.20;;
5807;SDS011;2930;42.678;23.312;2022-09-03T04:02:22;2.83;;;2.63;;
5807;SDS011;2930;42.678;23.312;2022-09-03T04:04:47;2.55;;;2.05;;
5807;SDS011;2930;42.678;23.312;2022-09-03T04:07:13;2.28;;;2.10;;
5807;SDS011;2930;42.678;23.312;2022-09-03T04:09:38;2.17;;;2.08;;
5807;SDS011;2930;42.678;23.312;2022-09-03T04:12:04;2.08;;;1.98;;
5807;SDS011;2930;42.678;23.312;2022-09-03T04:14:32;1.75;;;1.75;;
5807;SDS011;2930;42.678;23.312;2022-09-03T04:16:59;2.33;;;2.20;;
5807;SDS011;2930;42.678;23.312;2022-09-03T04:19:26;2.08;;;2.03;;
5807;SDS011;2930;42.678;23.312;2022-09-03T04:21:54;1.95;;;1.90;;
5807;SDS011;2930;42.678;23.312;2022-09-03T04:24:20;2.53;;;2.33;;
5807;SDS011;2930;42.678;23.312;2022-09-03T04:26:45;2.50;;;2.30;;
5807;SDS011;2930;42.678;23.312;2022-09-03T04:29:11;2.60;;;2.40;;
5807;SDS011;2930;42.678;23.312;2022-09-03T04:31:37;2.70;;;2.50;;
5807;SDS011;2930;42.678;23.312;2022-09-03T04:34:03;2.55;;;2.45;;
5807;SDS011;2930;42.678;23.312;2022-09-03T04:36:33;3.13;;;2.95;;
5807;SDS011;2930;42.678;23.312;2022-09-03T04:38:59;2.95;;;2.75;;
5807;SDS011;2930;42.678;23.312;2022-09-03T04:41:26;2.30;;;2.20;;
5807;SDS011;2930;42.678;23.312;2022-09-03T04:43:54;1.80;;;1.77;;
5807;SDS011;2930;42.678;23.312;2022-09-03T04:46:22;1.77;;;1.67;;
5807;SDS011;2930;42.678;23.312;2022-09-03T04:48:50;2.08;;;1.98;;
5807;SDS011;2930;42.678;23.312;2022-09-03T04:51:22;2.10;;;2.00;;
5807;SDS011;2930;42.678;23.312;2022-09-03T04:53:55;2.42;;;2.33;;
5807;SDS011;2930;42.678;23.312;2022-09-03T04:56:29;2.13;;;2.03;;
5807;SDS011;2930;42.678;23.312;2022-09-03T04:59:03;2.10;;;2.00;;
5807;SDS011;2930;42.678;23.312;2022-09-03T05:01:32;2.17;;;2.08;;
5807;SDS011;2930;42.678;23.312;2022-09-03T05:03:58;2.22;;;2.13;;
5807;SDS011;2930;42.678;23.312;2022-09-03T05:06:25;1.83;;;1.83;;
5807;SDS011;2930;42.678;23.312;2022-09-03T05:08:52;2.28;;;2.28;;
5807;SDS011;2930;42.678;23.312;2022-09-03T05:11:19;1.90;;;1.90;;
5807;SDS011;2930;42.678;23.312;2022-09-03T05:13:48;1.92;;;1.83;;
5807;SDS011;2930;42.678;23.312;2022-09-03T05:16:16;2.10;;;2.10;;
5807;SDS011;2930;42.678;23.312;2022-09-03T05:18:42;1.83;;;1.83;;
5807;SDS011;2930;42.678;23.312;2022-09-03T05:21:10;1.83;;;1.83;;
5807;SDS011;2930;42.678;23.312;2022-09-03T05:23:38;1.83;;;1.73;;
5807;SDS011;2930;42.678;23.312;2022-09-03T05:26:06;1.83;;;1.80;;
5807;SDS011;2930;42.678;23.312;2022-09-03T05:28:36;2.85;;;2.05;;
5807;SDS011;2930;42.678;23.312;2022-09-03T05:31:03;1.98;;;1.88;;
5807;SDS011;2930;42.678;23.312;2022-09-03T05:33:38;1.65;;;1.55;;
5807;SDS011;2930;42.678;23.312;2022-09-03T05:36:06;1.60;;;1.60;;
5807;SDS011;2930;42.678;23.312;2022-09-03T05:38:34;1.98;;;1.88;;
5807;SDS011;2930;42.678;23.312;2022-09-03T05:41:00;2.28;;;2.17;;
5807;SDS011;2930;42.678;23.312;2022-09-03T05:43:27;2.33;;;2.20;;
5807;SDS011;2930;42.678;23.312;2022-09-03T05:46:01;1.92;;;1.83;;
5807;SDS011;2930;42.678;23.312;2022-09-03T05:48:35;2.00;;;1.90;;
5807;SDS011;2930;42.678;23.312;2022-09-03T05:51:03;2.00;;;1.90;;
5807;SDS011;2930;42.678;23.312;2022-09-03T05:53:34;2.35;;;2.25;;
5807;SDS011;2930;42.678;23.312;2022-09-03T05:56:03;1.90;;;1.80;;
5807;SDS011;2930;42.678;23.312;2022-09-03T05:58:32;1.70;;;1.70;;
5807;SDS011;2930;42.678;23.312;2022-09-03T06:00:59;1.70;;;1.70;;
5807;SDS011;2930;42.678;23.312;2022-09-03T06:03:33;2.17;;;2.08;;
5807;SDS011;2930;42.678;23.312;2022-09-03T06:05:59;2.15;;;2.05;;
5807;SDS011;2930;42.678;23.312;2022-09-03T06:08:25;1.70;;;1.70;;
5807;SDS011;2930;42.678;23.312;2022-09-03T06:10:56;1.92;;;1.83;;
5807;SDS011;2930;42.678;23.312;2022-09-03T06:13:23;1.65;;;1.65;;
5807;SDS011;2930;42.678;23.312;2022-09-03T06:15:49;1.75;;;1.65;;
5807;SDS011;2930;42.678;23.312;2022-09-03T06:18:14;1.63;;;1.52;;
5807;SDS011;2930;42.678;23.312;2022-09-03T06:20:40;1.60;;;1.60;;
5807;SDS011;2930;42.678;23.312;2022-09-03T06:23:06;1.77;;;1.67;;
5807;SDS011;2930;42.678;23.312;2022-09-03T06:25:31;1.73;;;1.73;;
5807;SDS011;2930;42.678;23.312;2022-09-03T06:27:57;2.03;;;1.92;;
5807;SDS011;2930;42.678;23.312;2022-09-03T06:30:23;2.97;;;2.40;;
5807;SDS011;2930;42.678;23.312;2022-09-03T06:32:50;2.25;;;2.15;;
5807;SDS011;2930;42.678;23.312;2022-09-03T06:35:16;2.25;;;2.10;;
5807;SDS011;2930;42.678;23.312;2022-09-03T06:37:42;2.13;;;2.03;;
5807;SDS011;2930;42.678;23.312;2022-09-03T06:40:08;2.67;;;2.47;;
5807;SDS011;2930;42.678;23.312;2022-09-03T06:42:41;2.30;;;2.20;;
5807;SDS011;2930;42.678;23.312;2022-09-03T06:45:07;2.67;;;2.47;;
5807;SDS011;2930;42.678;23.312;2022-09-03T06:47:34;3.55;;;2.70;;
5807;SDS011;2930;42.678;23.312;2022-09-03T06:49:59;2.20;;;2.10;;
5807;SDS011;2930;42.678;23.312;2022-09-03T06:52:26;2.35;;;2.25;;
5807;SDS011;2930;42.678;23.312;2022-09-03T06:54:52;2.30;;;2.20;;
5807;SDS011;2930;42.678;23.312;2022-09-03T06:57:18;2.88;;;2.10;;
5807;SDS011;2930;42.678;23.312;2022-09-03T06:59:44;3.75;;;2.22;;
5807;SDS011;2930;42.678;23.312;2022-09-03T07:02:10;2.55;;;1.70;;
5807;SDS011;2930;42.678;23.312;2022-09-03T07:04:35;2.38;;;2.28;;
5807;SDS011;2930;42.678;23.312;2022-09-03T07:07:01;1.83;;;1.80;;
5807;SDS011;2930;42.678;23.312;2022-09-03T07:09:27;2.40;;;2.30;;
5807;SDS011;2930;42.678;23.312;2022-09-03T07:11:53;2.33;;;2.22;;
5807;SDS011;2930;42.678;23.312;2022-09-03T07:14:19;2.47;;;2.38;;
5807;SDS011;2930;42.678;23.312;2022-09-03T07:16:46;2.00;;;1.90;;
5807;SDS011;2930;42.678;23.312;2022-09-03T07:19:13;1.80;;;1.80;;
5807;SDS011;2930;42.678;23.312;2022-09-03T07:21:40;2.03;;;1.92;;
5807;SDS011;2930;42.678;23.312;2022-09-03T07:24:06;2.20;;;2.20;;
5807;SDS011;2930;42.678;23.312;2022-09-03T07:26:34;2.20;;;2.08;;
5807;SDS011;2930;42.678;23.312;2022-09-03T07:29:02;2.70;;;2.50;;
5807;SDS011;2930;42.678;23.312;2022-09-03T07:31:30;2.05;;;1.95;;
5807;SDS011;2930;42.678;23.312;2022-09-03T07:33:58;2.17;;;2.08;;
5807;SDS011;2930;42.678;23.312;2022-09-03T07:36:41;2.03;;;2.03;;
5807;SDS011;2930;42.678;23.312;2022-09-03T07:39:11;3.15;;;2.17;;
5807;SDS011;2930;42.678;23.312;2022-09-03T07:41:38;2.72;;;2.63;;
5807;SDS011;2930;42.678;23.312;2022-09-03T07:44:07;2.40;;;2.25;;
5807;SDS011;2930;42.678;23.312;2022-09-03T07:46:34;2.00;;;2.00;;
5807;SDS011;2930;42.678;23.312;2022-09-03T07:49:01;1.92;;;1.83;;
5807;SDS011;2930;42.678;23.312;2022-09-03T07:51:29;2.08;;;2.05;;
5807;SDS011;2930;42.678;23.312;2022-09-03T07:54:00;2.28;;;2.28;;
5807;SDS011;2930;42.678;23.312;2022-09-03T07:56:28;2.30;;;2.22;;
5807;SDS011;2930;42.678;23.312;2022-09-03T07:58:56;2.42;;;2.33;;
5807;SDS011;2930;42.678;23.312;2022-09-03T08:01:24;2.42;;;2.33;;
5807;SDS011;2930;42.678;23.312;2022-09-03T08:03:52;2.58;;;2.47;;
5807;SDS011;2930;42.678;23.312;2022-09-03T08:06:19;2.85;;;2.60;;
5807;SDS011;2930;42.678;23.312;2022-09-03T08:08:47;2.38;;;2.28;;
5807;SDS011;2930;42.678;23.312;2022-09-03T08:13:41;1.77;;;1.67;;
5807;SDS011;2930;42.678;23.312;2022-09-03T08:16:09;2.03;;;2.03;;
5807;SDS011;2930;42.678;23.312;2022-09-03T08:18:36;2.08;;;1.98;;
5807;SDS011;2930;42.678;23.312;2022-09-03T08:21:06;1.98;;;1.98;;
5807;SDS011;2930;42.678;23.312;2022-09-03T08:23:43;1.88;;;1.88;;
5807;SDS011;2930;42.678;23.312;2022-09-03T08:26:10;1.98;;;1.98;;
5807;SDS011;2930;42.678;23.312;2022-09-03T08:28:37;2.00;;;2.00;;
5807;SDS011;2930;42.678;23.312;2022-09-03T08:31:06;2.15;;;2.05;;
5807;SDS011;2930;42.678;23.312;2022-09-03T08:33:40;1.65;;;1.65;;
5807;SDS011;2930;42.678;23.312;2022-09-03T08:36:11;2.08;;;1.98;;
5807;SDS011;2930;42.678;23.312;2022-09-03T08:38:39;2.17;;;2.15;;
5807;SDS011;2930;42.678;23.312;2022-09-03T08:43:53;1.92;;;1.92;;
5807;SDS011;2930;42.678;23.312;2022-09-03T08:49:14;2.38;;;2.30;;
5807;SDS011;2930;42.678;23.312;2022-09-03T08:51:47;1.88;;;1.85;;
5807;SDS011;2930;42.678;23.312;2022-09-03T08:54:15;2.20;;;2.10;;
5807;SDS011;2930;42.678;23.312;2022-09-03T08:56:44;2.58;;;2.50;;
5807;SDS011;2930;42.678;23.312;2022-09-03T08:59:11;2.47;;;2.38;;
5807;SDS011;2930;42.678;23.312;2022-09-03T09:04:21;2.88;;;2.63;;
5807;SDS011;2930;42.678;23.312;2022-09-03T09:20:35;2.38;;;2.30;;
5807;SDS011;2930;42.678;23.312;2022-09-03T09:23:14;2.53;;;2.42;;
5807;SDS011;2930;42.678;23.312;2022-09-03T09:25:52;2.63;;;2.53;;
5807;SDS011;2930;42.678;23.312;2022-09-03T09:30:46;2.33;;;2.13;;
5807;SDS011;2930;42.678;23.312;2022-09-03T09:33:14;2.13;;;2.13;;
5807;SDS011;2930;42.678;23.312;2022-09-03T09:35:41;2.55;;;2.55;;
5807;SDS011;2930;42.678;23.312;2022-09-03T09:38:08;2.42;;;2.35;;
5807;SDS011;2930;42.678;23.312;2022-09-03T09:40:35;2.03;;;1.80;;
5807;SDS011;2930;42.678;23.312;2022-09-03T09:43:14;2.17;;;2.08;;
5807;SDS011;2930;42.678;23.312;2022-09-03T09:45:44;1.52;;;1.52;;
5807;SDS011;2930;42.678;23.312;2022-09-03T09:48:22;1.30;;;1.30;;
5807;SDS011;2930;42.678;23.312;2022-09-03T09:51:10;1.95;;;1.95;;
5807;SDS011;2930;42.678;23.312;2022-09-03T09:53:38;2.03;;;2.03;;
5807;SDS011;2930;42.678;23.312;2022-09-03T09:56:05;2.30;;;2.30;;
5807;SDS011;2930;42.678;23.312;2022-09-03T09:58:32;2.33;;;2.33;;
5807;SDS011;2930;42.678;23.312;2022-09-03T10:03:51;2.58;;;2.47;;
5807;SDS011;2930;42.678;23.312;2022-09-03T10:06:21;2.15;;;2.15;;
5807;SDS011;2930;42.678;23.312;2022-09-03T10:09:08;2.53;;;2.42;;
5807;SDS011;2930;42.678;23.312;2022-09-03T10:11:38;2.80;;;2.70;;
5807;SDS011;2930;42.678;23.312;2022-09-03T10:14:09;2.05;;;2.05;;
5807;SDS011;2930;42.678;23.312;2022-09-03T10:16:41;2.42;;;2.42;;
5807;SDS011;2930;42.678;23.312;2022-09-03T10:19:30;2.25;;;2.17;;
5807;SDS011;2930;42.678;23.312;2022-09-03T10:22:30;1.70;;;1.67;;
5807;SDS011;2930;42.678;23.312;2022-09-03T10:25:02;2.42;;;2.42;;
5807;SDS011;2930;42.678;23.312;2022-09-03T10:27:29;2.38;;;2.28;;
5807;SDS011;2930;42.678;23.312;2022-09-03T10:29:55;2.40;;;2.40;;
5807;SDS011;2930;42.678;23.312;2022-09-03T10:40:28;2.00;;;2.00;;
5807;SDS011;2930;42.678;23.312;2022-09-03T10:46:15;1.77;;;1.75;;
5807;SDS011;2930;42.678;23.312;2022-09-03T10:49:19;2.05;;;2.05;;
5807;SDS011;2930;42.678;23.312;2022-09-03T10:56:57;1.40;;;1.40;;
5807;SDS011;2930;42.678;23.312;2022-09-03T10:59:58;1.85;;;1.85;;
5807;SDS011;2930;42.678;23.312;2022-09-03T11:05:20;1.98;;;1.98;;
5807;SDS011;2930;42.678;23.312;2022-09-03T11:08:04;2.08;;;1.98;;
5807;SDS011;2930;42.678;23.312;2022-09-03T11:10:47;1.75;;;1.75;;
5807;SDS011;2930;42.678;23.312;2022-09-03T11:13:24;1.80;;;1.80;;
5807;SDS011;2930;42.678;23.312;2022-09-03T11:15:55;1.67;;;1.63;;
5807;SDS011;2930;42.678;23.312;2022-09-03T11:21:07;1.65;;;1.65;;
5807;SDS011;2930;42.678;23.312;2022-09-03T11:23:36;2.60;;;1.60;;
5807;SDS011;2930;42.678;23.312;2022-09-03T11:26:09;1.60;;;1.58;;
5807;SDS011;2930;42.678;23.312;2022-09-03T11:36:34;1.67;;;1.67;;
5807;SDS011;2930;42.678;23.312;2022-09-03T11:39:20;2.78;;;1.92;;
5807;SDS011;2930;42.678;23.312;2022-09-03T11:42:03;1.88;;;1.88;;
5807;SDS011;2930;42.678;23.312;2022-09-03T11:44:37;1.92;;;1.92;;
5807;SDS011;2930;42.678;23.312;2022-09-03T11:49:48;1.95;;;1.95;;
5807;SDS011;2930;42.678;23.312;2022-09-03T11:52:29;2.63;;;1.83;;
5807;SDS011;2930;42.678;23.312;2022-09-03T11:55:05;1.75;;;1.75;;
5807;SDS011;2930;42.678;23.312;2022-09-03T11:57:31;1.90;;;1.90;;
5807;SDS011;2930;42.678;23.312;2022-09-03T12:00:10;1.85;;;1.85;;
5807;SDS011;2930;42.678;23.312;2022-09-03T12:02:43;2.28;;;2.28;;
5807;SDS011;2930;42.678;23.312;2022-09-03T12:16:35;2.17;;;2.08;;
5807;SDS011;2930;42.678;23.312;2022-09-03T12:19:10;1.95;;;1.95;;
5807;SDS011;2930;42.678;23.312;2022-09-03T12:21:48;1.85;;;1.75;;
5807;SDS011;2930;42.678;23.312;2022-09-03T12:24:14;2.00;;;2.00;;
5807;SDS011;2930;42.678;23.312;2022-09-03T12:26:41;1.90;;;1.90;;
5807;SDS011;2930;42.678;23.312;2022-09-03T12:29:18;2.30;;;2.20;;
5807;SDS011;2930;42.678;23.312;2022-09-03T12:31:47;2.30;;;2.30;;
5807;SDS011;2930;42.678;23.312;2022-09-03T12:34:15;2.47;;;2.40;;
5807;SDS011;2930;42.678;23.312;2022-09-03T12:39:13;2.10;;;2.05;;
5807;SDS011;2930;42.678;23.312;2022-09-03T12:41:51;1.38;;;1.38;;
5807;SDS011;2930;42.678;23.312;2022-09-03T12:49:42;1.75;;;1.75;;
5807;SDS011;2930;42.678;23.312;2022-09-03T12:52:25;1.77;;;1.77;;
5807;SDS011;2930;42.678;23.312;2022-09-03T12:57:21;1.75;;;1.70;;
5807;SDS011;2930;42.678;23.312;2022-09-03T12:59:51;1.50;;;1.50;;
5807;SDS011;2930;42.678;23.312;2022-09-03T13:02:28;1.60;;;1.60;;
5807;SDS011;2930;42.678;23.312;2022-09-03T13:05:19;1.48;;;1.48;;
5807;SDS011;2930;42.678;23.312;2022-09-03T13:07:50;1.70;;;1.70;;
5807;SDS011;2930;42.678;23.312;2022-09-03T13:10:29;1.63;;;1.63;;
5807;SDS011;2930;42.678;23.312;2022-09-03T13:12:58;1.50;;;1.50;;
5807;SDS011;2930;42.678;23.312;2022-09-03T13:15:26;1.77;;;1.77;;
5807;SDS011;2930;42.678;23.312;2022-09-03T13:21:33;1.60;;;1.60;;
5807;SDS011;2930;42.678;23.312;2022-09-03T13:27:01;1.58;;;1.10;;
5807;SDS011;2930;42.678;23.312;2022-09-03T13:29:47;1.23;;;1.23;;
5807;SDS011;2930;42.678;23.312;2022-09-03T13:32:28;2.90;;;1.38;;
5807;SDS011;2930;42.678;23.312;2022-09-03T13:37:55;1.50;;;1.50;;
5807;SDS011;2930;42.678;23.312;2022-09-03T13:40:57;1.40;;;1.40;;
5807;SDS011;2930;42.678;23.312;2022-09-03T13:43:40;1.20;;;1.20;;
5807;SDS011;2930;42.678;23.312;2022-09-03T13:48:58;0.73;;;0.73;;
5807;SDS011;2930;42.678;23.312;2022-09-03T13:52:07;1.00;;;0.80;;
5807;SDS011;2930;42.678;23.312;2022-09-03T13:54:44;1.15;;;1.15;;
5807;SDS011;2930;42.678;23.312;2022-09-03T14:18:45;1.27;;;1.27;;
5807;SDS011;2930;42.678;23.312;2022-09-03T14:21:20;1.45;;;1.42;;
5807;SDS011;2930;42.678;23.312;2022-09-03T14:23:58;1.63;;;1.63;;
5807;SDS011;2930;42.678;23.312;2022-09-03T14:26:31;1.23;;;1.23;;
5807;SDS011;2930;42.678;23.312;2022-09-03T14:29:01;1.33;;;1.23;;
5807;SDS011;2930;42.678;23.312;2022-09-03T14:31:49;1.33;;;1.33;;
5807;SDS011;2930;42.678;23.312;2022-09-03T14:56:16;1.67;;;1.50;;
5807;SDS011;2930;42.678;23.312;2022-09-03T14:58:59;0.90;;;0.90;;
5807;SDS011;2930;42.678;23.312;2022-09-03T15:01:33;1.25;;;1.10;;
5807;SDS011;2930;42.678;23.312;2022-09-03T15:17:59;1.23;;;1.17;;
5807;SDS011;2930;42.678;23.312;2022-09-03T15:29:09;1.15;;;1.02;;
5807;SDS011;2930;42.678;23.312;2022-09-03T15:35:08;1.40;;;1.40;;
5807;SDS011;2930;42.678;23.312;2022-09-03T15:38:06;1.60;;;1.60;;
5807;SDS011;2930;42.678;23.312;2022-09-03T15:40:59;1.73;;;1.73;;
5807;SDS011;2930;42.678;23.312;2022-09-03T15:43:32;1.30;;;1.30;;
5807;SDS011;2930;42.678;23.312;2022-09-03T15:45:59;1.70;;;1.60;;
5807;SDS011;2930;42.678;23.312;2022-09-03T15:48:45;1.00;;;1.00;;
5807;SDS011;2930;42.678;23.312;2022-09-03T15:51:29;2.05;;;1.95;;
5807;SDS011;2930;42.678;23.312;2022-09-03T15:54:15;1.25;;;1.25;;
5807;SDS011;2930;42.678;23.312;2022-09-03T16:02:19;2.17;;;2.08;;
5807;SDS011;2930;42.678;23.312;2022-09-03T16:15:31;1.58;;;1.58;;
5807;SDS011;2930;42.678;23.312;2022-09-03T16:23:20;2.60;;;2.50;;
5807;SDS011;2930;42.678;23.312;2022-09-03T16:31:14;2.08;;;2.08;;
5807;SDS011;2930;42.678;23.312;2022-09-03T16:34:06;2.30;;;2.20;;
5807;SDS011;2930;42.678;23.312;2022-09-03T16:42:22;2.45;;;2.35;;
5807;SDS011;2930;42.678;23.312;2022-09-03T17:13:23;3.33;;;2.47;;
5807;SDS011;2930;42.678;23.312;2022-09-03T17:18:29;2.70;;;2.60;;
5807;SDS011;2930;42.678;23.312;2022-09-03T17:26:52;3.42;;;3.33;;
5807;SDS011;2930;42.678;23.312;2022-09-03T17:32:31;2.70;;;2.60;;
5807;SDS011;2930;42.678;23.312;2022-09-03T17:41:23;2.42;;;2.33;;
5807;SDS011;2930;42.678;23.312;2022-09-03T17:44:03;6.53;;;2.95;;
5807;SDS011;2930;42.678;23.312;2022-09-03T17:46:40;2.83;;;2.72;;
5807;SDS011;2930;42.678;23.312;2022-09-03T17:49:13;2.92;;;2.83;;
5807;SDS011;2930;42.678;23.312;2022-09-03T17:52:01;2.13;;;2.13;;
5807;SDS011;2930;42.678;23.312;2022-09-03T17:54:44;2.35;;;2.25;;
5807;SDS011;2930;42.678;23.312;2022-09-03T17:57:16;2.72;;;2.70;;
5807;SDS011;2930;42.678;23.312;2022-09-03T18:05:04;3.15;;;3.00;;
5807;SDS011;2930;42.678;23.312;2022-09-03T18:07:51;3.03;;;2.92;;
5807;SDS011;2930;42.678;23.312;2022-09-03T18:10:31;2.83;;;2.33;;
5807;SDS011;2930;42.678;23.312;2022-09-03T18:15:45;4.25;;;3.15;;
5807;SDS011;2930;42.678;23.312;2022-09-03T18:18:29;2.60;;;2.50;;
5807;SDS011;2930;42.678;23.312;2022-09-03T18:20:56;2.90;;;2.80;;
5807;SDS011;2930;42.678;23.312;2022-09-03T18:27:35;2.92;;;2.83;;
5807;SDS011;2930;42.678;23.312;2022-09-03T18:30:21;2.47;;;2.47;;
5807;SDS011;2930;42.678;23.312;2022-09-03T18:33:05;3.28;;;3.17;;
5807;SDS011;2930;42.678;23.312;2022-09-03T18:35:49;2.75;;;2.65;;
5807;SDS011;2930;42.678;23.312;2022-09-03T18:38:34;3.05;;;2.95;;
5807;SDS011;2930;42.678;23.312;2022-09-03T18:44:11;3.10;;;3.00;;
5807;SDS011;2930;42.678;23.312;2022-09-03T18:47:03;3.20;;;3.10;;
5807;SDS011;2930;42.678;23.312;2022-09-03T19:05:41;3.53;;;3.42;;
5807;SDS011;2930;42.678;23.312;2022-09-03T19:08:43;4.13;;;3.92;;
5807;SDS011;2930;42.678;23.312;2022-09-03T19:11:36;4.10;;;3.90;;
5807;SDS011;2930;42.678;23.312;2022-09-03T19:24:09;3.65;;;3.45;;
5807;SDS011;2930;42.678;23.312;2022-09-03T19:30:06;4.03;;;3.83;;
5807;SDS011;2930;42.678;23.312;2022-09-03T19:36:15;3.85;;;3.65;;
5807;SDS011;2930;42.678;23.312;2022-09-03T19:42:40;4.65;;;3.72;;
5807;SDS011;2930;42.678;23.312;2022-09-03T19:48:32;3.50;;;3.30;;
5807;SDS011;2930;42.678;23.312;2022-09-03T19:51:41;2.92;;;2.72;;
5807;SDS011;2930;42.678;23.312;2022-09-03T19:54:35;3.90;;;3.78;;
5807;SDS011;2930;42.678;23.312;2022-09-03T19:57:22;3.85;;;3.55;;
5807;SDS011;2930;42.678;23.312;2022-09-03T20:00:09;3.33;;;3.22;;
5807;SDS011;2930;42.678;23.312;2022-09-03T20:02:54;3.30;;;3.15;;
5807;SDS011;2930;42.678;23.312;2022-09-03T20:05:40;2.95;;;2.85;;
5807;SDS011;2930;42.678;23.312;2022-09-03T20:08:26;2.92;;;2.83;;
5807;SDS011;2930;42.678;23.312;2022-09-03T20:11:16;3.17;;;2.97;;
5807;SDS011;2930;42.678;23.312;2022-09-03T20:13:45;3.30;;;3.15;;
5807;SDS011;2930;42.678;23.312;2022-09-03T20:30:33;3.40;;;3.20;;
5807;SDS011;2930;42.678;23.312;2022-09-03T21:11:17;4.40;;;4.00;;
5807;SDS011;2930;42.678;23.312;2022-09-03T21:16:36;3.85;;;3.65;;
5807;SDS011;2930;42.678;23.312;2022-09-03T21:24:38;3.97;;;3.65;;
5807;SDS011;2930;42.678;23.312;2022-09-03T21:27:13;3.45;;;3.20;;
5807;SDS011;2930;42.678;23.312;2022-09-03T21:35:40;4.28;;;3.92;;
5807;SDS011;2930;42.678;23.312;2022-09-03T21:38:16;3.80;;;3.55;;
5807;SDS011;2930;42.678;23.312;2022-09-03T21:46:35;4.68;;;4.38;;
5807;SDS011;2930;42.678;23.312;2022-09-03T21:49:06;6.45;;;4.28;;
5807;SDS011;2930;42.678;23.312;2022-09-03T21:51:46;4.97;;;4.57;;
5807;SDS011;2930;42.678;23.312;2022-09-03T21:54:28;5.95;;;5.47;;
5807;SDS011;2930;42.678;23.312;2022-09-03T21:57:06;5.15;;;4.80;;
5807;SDS011;2930;42.678;23.312;2022-09-03T22:00:10;4.68;;;4.32;;
5807;SDS011;2930;42.678;23.312;2022-09-03T22:02:47;6.30;;;4.93;;
5807;SDS011;2930;42.678;23.312;2022-09-03T22:05:14;5.75;;;5.25;;
5807;SDS011;2930;42.678;23.312;2022-09-03T22:07:53;5.80;;;5.32;;
5807;SDS011;2930;42.678;23.312;2022-09-03T22:19:11;4.40;;;4.15;;
5807;SDS011;2930;42.678;23.312;2022-09-03T22:27:23;4.38;;;4.07;;
5807;SDS011;2930;42.678;23.312;2022-09-03T22:30:05;4.35;;;3.78;;
5807;SDS011;2930;42.678;23.312;2022-09-03T22:36:12;4.45;;;4.15;;
5807;SDS011;2930;42.678;23.312;2022-09-03T22:44:20;6.38;;;4.60;;
5807;SDS011;2930;42.678;23.312;2022-09-03T22:47:01;4.18;;;3.97;;
5807;SDS011;2930;42.678;23.312;2022-09-03T22:52:45;3.83;;;3.63;;
5807;SDS011;2930;42.678;23.312;2022-09-03T22:55:32;3.35;;;3.25;;
5807;SDS011;2930;42.678;23.312;2022-09-03T22:58:12;3.95;;;3.75;;
5807;SDS011;2930;42.678;23.312;2022-09-03T23:04:03;3.72;;;3.53;;
5807;SDS011;2930;42.678;23.312;2022-09-03T23:06:36;3.55;;;3.35;;
5807;SDS011;2930;42.678;23.312;2022-09-03T23:09:08;3.85;;;3.55;;
5807;SDS011;2930;42.678;23.312;2022-09-03T23:11:44;4.53;;;3.38;;
5807;SDS011;2930;42.678;23.312;2022-09-03T23:14:26;4.65;;;4.13;;
5807;SDS011;2930;42.678;23.312;2022-09-03T23:16:57;3.65;;;3.35;;
5807;SDS011;2930;42.678;23.312;2022-09-03T23:19:41;4.53;;;3.35;;
5807;SDS011;2930;42.678;23.312;2022-09-03T23:22:22;6.47;;;4.68;;
5807;SDS011;2930;42.678;23.312;2022-09-03T23:27:49;6.25;;;4.68;;